sensor_id;sensor_type;location;lat;lon;timestamp;pressure;altitude;pressure_sealevel;temperature;humidity
71109;BME280;59614;51.012;-1.648;2023-03-16T00:01:41;100099.91;;;8.33;100.00
71109;BME280;59614;51.012;-1.648;2023-03-16T00:04:07;100099.94;;;8.30;100.00
71109;BME280;59614;51.012;-1.648;2023-03-16T00:06:32;100091.88;;;8.41;100.00
71109;BME280;59614;51.012;-1.648;2023-03-16T00:08:58;100093.59;;;8.45;100.00
71109;BME280;59614;51.012;-1.648;2023-03-16T00:11:24;100101.59;;;8.34;100.00
71109;BME280;59614;51.012;-1.648;2023-03-16T00:13:50;100085.91;;;8.31;100.00
71109;BME280;59614;51.012;-1.648;2023-03-16T00:16:16;100080.50;;;8.40;100.00
71109;BME280;59614;51.012;-1.648;2023-03-16T00:18:41;100069.22;;;8.32;100.00
71109;BME280;59614;51.012;-1.648;2023-03-16T00:21:07;100056.09;;;8.32;100.00
71109;BME280;59614;51.012;-1.648;2023-03-16T00:23:33;100053.34;;;8.38;100.00
71109;BME280;59614;51.012;-1.648;2023-03-16T00:26:05;100056.00;;;8.38;100.00
71109;BME280;59614;51.012;-1.648;2023-03-16T00:28:31;100044.59;;;8.39;100.00
71109;BME280;59614;51.012;-1.648;2023-03-16T00:31:05;100040.16;;;8.43;100.00
71109;BME280;59614;51.012;-1.648;2023-03-16T00:33:31;100041.97;;;8.39;100.00
71109;BME280;59614;51.012;-1.648;2023-03-16T00:36:03;100040.19;;;8.41;100.00
71109;BME280;59614;51.012;-1.648;2023-03-16T00:38:34;100040.06;;;8.50;100.00
71109;BME280;59614;51.012;-1.648;2023-03-16T00:41:01;100037.47;;;8.46;100.00
71109;BME280;59614;51.012;-1.648;2023-03-16T00:43:34;100032.34;;;8.37;100.00
71109;BME280;59614;51.012;-1.648;2023-03-16T00:46:06;100036.78;;;8.33;100.00
71109;BME280;59614;51.012;-1.648;2023-03-16T00:48:33;100032.25;;;8.43;100.00
71109;BME280;59614;51.012;-1.648;2023-03-16T00:51:03;100027.03;;;8.41;100.00
71109;BME280;59614;51.012;-1.648;2023-03-16T00:53:32;100022.69;;;8.37;100.00
71109;BME280;59614;51.012;-1.648;2023-03-16T00:55:57;100024.38;;;8.44;100.00
71109;BME280;59614;51.012;-1.648;2023-03-16T00:58:23;100019.13;;;8.40;100.00
71109;BME280;59614;51.012;-1.648;2023-03-16T01:00:49;100013.91;;;8.38;100.00
71109;BME280;59614;51.012;-1.648;2023-03-16T01:03:16;100009.50;;;8.40;100.00
71109;BME280;59614;51.012;-1.648;2023-03-16T01:05:41;100014.78;;;8.40;100.00
71109;BME280;59614;51.012;-1.648;2023-03-16T01:08:07;100013.03;;;8.39;100.00
71109;BME280;59614;51.012;-1.648;2023-03-16T01:10:36;100006.03;;;8.38;100.00
71109;BME280;59614;51.012;-1.648;2023-03-16T01:13:02;100004.19;;;8.45;100.00
71109;BME280;59614;51.012;-1.648;2023-03-16T01:15:29;100001.47;;;8.51;100.00
71109;BME280;59614;51.012;-1.648;2023-03-16T01:17:55;100004.09;;;8.53;100.00
71109;BME280;59614;51.012;-1.648;2023-03-16T01:20:20;99994.28;;;8.62;100.00
71109;BME280;59614;51.012;-1.648;2023-03-16T01:22:46;99990.81;;;8.62;100.00
71109;BME280;59614;51.012;-1.648;2023-03-16T01:25:12;99994.34;;;8.61;100.00
71109;BME280;59614;51.012;-1.648;2023-03-16T01:27:38;100003.03;;;8.66;100.00
71109;BME280;59614;51.012;-1.648;2023-03-16T01:30:04;99989.88;;;8.66;100.00
71109;BME280;59614;51.012;-1.648;2023-03-16T01:32:30;99992.47;;;8.68;100.00
71109;BME280;59614;51.012;-1.648;2023-03-16T01:34:56;99989.72;;;8.74;100.00
71109;BME280;59614;51.012;-1.648;2023-03-16T01:37:21;99997.50;;;8.81;100.00
71109;BME280;59614;51.012;-1.648;2023-03-16T01:39:48;99985.31;;;8.77;100.00
71109;BME280;59614;51.012;-1.648;2023-03-16T01:42:13;99985.16;;;8.87;100.00
71109;BME280;59614;51.012;-1.648;2023-03-16T01:45:52;99973.13;;;8.72;100.00
71109;BME280;59614;51.012;-1.648;2023-03-16T01:47:53;99977.44;;;8.76;100.00
71109;BME280;59614;51.012;-1.648;2023-03-16T01:50:19;99979.22;;;8.74;100.00
71109;BME280;59614;51.012;-1.648;2023-03-16T01:52:44;99973.41;;;8.53;100.00
71109;BME280;59614;51.012;-1.648;2023-03-16T01:55:10;99961.06;;;8.57;100.00
71109;BME280;59614;51.012;-1.648;2023-03-16T01:57:39;99969.81;;;8.59;100.00
71109;BME280;59614;51.012;-1.648;2023-03-16T02:00:13;99963.66;;;8.60;100.00
71109;BME280;59614;51.012;-1.648;2023-03-16T02:02:55;99950.28;;;8.74;100.00
71109;BME280;59614;51.012;-1.648;2023-03-16T02:05:27;99957.31;;;8.73;100.00
71109;BME280;59614;51.012;-1.648;2023-03-16T02:07:55;99945.84;;;8.76;100.00
71109;BME280;59614;51.012;-1.648;2023-03-16T02:10:23;99939.63;;;8.81;100.00
71109;BME280;59614;51.012;-1.648;2023-03-16T02:12:51;99942.28;;;8.78;100.00
71109;BME280;59614;51.012;-1.648;2023-03-16T02:15:17;99937.75;;;8.88;100.00
71109;BME280;59614;51.012;-1.648;2023-03-16T02:17:44;99941.09;;;8.98;100.00
71109;BME280;59614;51.012;-1.648;2023-03-16T02:22:48;99938.56;;;8.93;100.00
71109;BME280;59614;51.012;-1.648;2023-03-16T02:25:18;99936.31;;;8.70;100.00
71109;BME280;59614;51.012;-1.648;2023-03-16T02:30:18;99930.56;;;8.98;100.00
71109;BME280;59614;51.012;-1.648;2023-03-16T02:32:45;99928.94;;;8.91;100.00
71109;BME280;59614;51.012;-1.648;2023-03-16T02:35:13;99932.38;;;8.96;100.00
71109;BME280;59614;51.012;-1.648;2023-03-16T02:37:39;99930.06;;;8.76;100.00
71109;BME280;59614;51.012;-1.648;2023-03-16T02:40:24;99929.81;;;8.91;100.00
71109;BME280;59614;51.012;-1.648;2023-03-16T02:43:17;99922.69;;;8.96;100.00
71109;BME280;59614;51.012;-1.648;2023-03-16T02:45:51;99926.22;;;8.97;100.00
71109;BME280;59614;51.012;-1.648;2023-03-16T02:48:26;99913.31;;;8.81;100.00
71109;BME280;59614;51.012;-1.648;2023-03-16T02:50:53;99911.66;;;8.76;100.00
71109;BME280;59614;51.012;-1.648;2023-03-16T02:53:19;99913.22;;;8.86;100.00
71109;BME280;59614;51.012;-1.648;2023-03-16T02:55:45;99905.53;;;8.75;100.00
71109;BME280;59614;51.012;-1.648;2023-03-16T02:58:13;99898.81;;;8.57;100.00
71109;BME280;59614;51.012;-1.648;2023-03-16T03:00:38;99903.28;;;8.54;100.00
71109;BME280;59614;51.012;-1.648;2023-03-16T03:03:05;99898.94;;;8.49;100.00
71109;BME280;59614;51.012;-1.648;2023-03-16T03:05:32;99893.72;;;8.45;100.00
71109;BME280;59614;51.012;-1.648;2023-03-16T03:07:58;99896.28;;;8.53;100.00
71109;BME280;59614;51.012;-1.648;2023-03-16T03:10:23;99899.78;;;8.52;100.00
71109;BME280;59614;51.012;-1.648;2023-03-16T03:12:49;99896.31;;;8.49;100.00
71109;BME280;59614;51.012;-1.648;2023-03-16T03:15:15;99892.66;;;8.57;100.00
71109;BME280;59614;51.012;-1.648;2023-03-16T03:17:42;99902.53;;;8.41;100.00
71109;BME280;59614;51.012;-1.648;2023-03-16T03:20:09;99900.63;;;8.54;100.00
71109;BME280;59614;51.012;-1.648;2023-03-16T03:22:42;99896.38;;;8.43;100.00
71109;BME280;59614;51.012;-1.648;2023-03-16T03:25:10;99893.69;;;8.46;100.00
71109;BME280;59614;51.012;-1.648;2023-03-16T03:27:35;99890.25;;;8.44;100.00
71109;BME280;59614;51.012;-1.648;2023-03-16T03:30:01;99895.47;;;8.46;100.00
71109;BME280;59614;51.012;-1.648;2023-03-16T03:32:27;99892.75;;;8.52;100.00
71109;BME280;59614;51.012;-1.648;2023-03-16T03:34:52;99874.38;;;8.50;100.00
71109;BME280;59614;51.012;-1.648;2023-03-16T03:37:18;99883.09;;;8.54;100.00
71109;BME280;59614;51.012;-1.648;2023-03-16T03:39:43;99881.50;;;8.42;100.00
71109;BME280;59614;51.012;-1.648;2023-03-16T03:42:10;99875.31;;;8.45;100.00
71109;BME280;59614;51.012;-1.648;2023-03-16T03:44:36;99878.88;;;8.41;100.00
71109;BME280;59614;51.012;-1.648;2023-03-16T03:47:02;99879.72;;;8.44;100.00
71109;BME280;59614;51.012;-1.648;2023-03-16T03:49:28;99878.75;;;8.52;100.00
71109;BME280;59614;51.012;-1.648;2023-03-16T03:51:54;99872.72;;;8.43;100.00
71109;BME280;59614;51.012;-1.648;2023-03-16T03:54:20;99870.03;;;8.46;100.00
71109;BME280;59614;51.012;-1.648;2023-03-16T03:56:45;99867.53;;;8.39;100.00
71109;BME280;59614;51.012;-1.648;2023-03-16T03:59:11;99866.53;;;8.47;100.00
71109;BME280;59614;51.012;-1.648;2023-03-16T04:01:36;99861.28;;;8.47;100.00
71109;BME280;59614;51.012;-1.648;2023-03-16T04:04:01;99858.59;;;8.50;100.00
71109;BME280;59614;51.012;-1.648;2023-03-16T04:06:27;99858.63;;;8.47;100.00
71109;BME280;59614;51.012;-1.648;2023-03-16T04:08:52;99850.19;;;8.27;100.00
71109;BME280;59614;51.012;-1.648;2023-03-16T04:11:19;99854.44;;;8.34;100.00
71109;BME280;59614;51.012;-1.648;2023-03-16T04:13:45;99845.09;;;8.17;100.00
71109;BME280;59614;51.012;-1.648;2023-03-16T04:16:10;99850.38;;;8.14;100.00
71109;BME280;59614;51.012;-1.648;2023-03-16T04:18:40;99843.47;;;8.09;100.00
71109;BME280;59614;51.012;-1.648;2023-03-16T04:21:08;99846.09;;;8.10;100.00
71109;BME280;59614;51.012;-1.648;2023-03-16T04:23:36;99839.94;;;8.10;100.00
71109;BME280;59614;51.012;-1.648;2023-03-16T04:26:02;99834.66;;;8.11;100.00
71109;BME280;59614;51.012;-1.648;2023-03-16T04:28:30;99837.25;;;8.14;100.00
71109;BME280;59614;51.012;-1.648;2023-03-16T04:31:01;99831.97;;;8.14;100.00
71109;BME280;59614;51.012;-1.648;2023-03-16T04:33:26;99830.34;;;8.07;100.00
71109;BME280;59614;51.012;-1.648;2023-03-16T04:35:52;99839.16;;;8.03;100.00
71109;BME280;59614;51.012;-1.648;2023-03-16T04:38:17;99841.78;;;8.04;100.00
71109;BME280;59614;51.012;-1.648;2023-03-16T04:40:43;99841.84;;;8.00;100.00
71109;BME280;59614;51.012;-1.648;2023-03-16T04:43:09;99846.13;;;8.07;100.00
71109;BME280;59614;51.012;-1.648;2023-03-16T04:45:34;99847.00;;;8.06;100.00
71109;BME280;59614;51.012;-1.648;2023-03-16T04:48:00;99839.16;;;8.04;100.00
71109;BME280;59614;51.012;-1.648;2023-03-16T04:50:25;99841.78;;;8.03;100.00
71109;BME280;59614;51.012;-1.648;2023-03-16T04:52:50;99843.44;;;8.10;100.00
71109;BME280;59614;51.012;-1.648;2023-03-16T04:55:16;99839.16;;;8.04;100.00
71109;BME280;59614;51.012;-1.648;2023-03-16T04:57:42;99841.75;;;8.06;100.00
71109;BME280;59614;51.012;-1.648;2023-03-16T05:00:08;99838.25;;;8.06;100.00
71109;BME280;59614;51.012;-1.648;2023-03-16T05:02:44;99844.41;;;8.03;100.00
71109;BME280;59614;51.012;-1.648;2023-03-16T05:05:09;99845.31;;;8.02;100.00
71109;BME280;59614;51.012;-1.648;2023-03-16T05:07:35;99842.69;;;8.02;100.00
71109;BME280;59614;51.012;-1.648;2023-03-16T05:10:00;99832.16;;;8.02;100.00
71109;BME280;59614;51.012;-1.648;2023-03-16T05:12:26;99831.31;;;8.00;100.00
71109;BME280;59614;51.012;-1.648;2023-03-16T05:14:51;99842.75;;;7.99;100.00
71109;BME280;59614;51.012;-1.648;2023-03-16T05:17:17;99835.66;;;8.04;100.00
71109;BME280;59614;51.012;-1.648;2023-03-16T05:19:42;99827.81;;;8.02;100.00
71109;BME280;59614;51.012;-1.648;2023-03-16T05:22:08;99824.28;;;8.02;100.00
71109;BME280;59614;51.012;-1.648;2023-03-16T05:24:34;99819.03;;;8.02;100.00
71109;BME280;59614;51.012;-1.648;2023-03-16T05:27:01;99811.06;;;8.08;100.00
71109;BME280;59614;51.012;-1.648;2023-03-16T05:29:27;99819.06;;;8.00;100.00
71109;BME280;59614;51.012;-1.648;2023-03-16T05:31:55;99814.53;;;8.10;100.00
71109;BME280;59614;51.012;-1.648;2023-03-16T05:34:21;99818.09;;;8.06;100.00
71109;BME280;59614;51.012;-1.648;2023-03-16T05:36:47;99809.41;;;8.01;100.00
71109;BME280;59614;51.012;-1.648;2023-03-16T05:39:12;99802.41;;;8.00;100.00
71109;BME280;59614;51.012;-1.648;2023-03-16T05:41:38;99816.38;;;8.05;100.00
71109;BME280;59614;51.012;-1.648;2023-03-16T05:44:03;99817.31;;;7.99;100.00
71109;BME280;59614;51.012;-1.648;2023-03-16T05:46:30;99833.91;;;8.03;100.00
71109;BME280;59614;51.012;-1.648;2023-03-16T05:48:55;99819.88;;;8.04;100.00
71109;BME280;59614;51.012;-1.648;2023-03-16T05:51:21;99820.69;;;8.08;100.00
71109;BME280;59614;51.012;-1.648;2023-03-16T05:53:50;99830.31;;;8.10;100.00
71109;BME280;59614;51.012;-1.648;2023-03-16T05:56:16;99826.03;;;8.03;100.00
71109;BME280;59614;51.012;-1.648;2023-03-16T05:58:42;99840.00;;;8.05;100.00
71109;BME280;59614;51.012;-1.648;2023-03-16T06:01:07;99844.41;;;8.04;100.00
71109;BME280;59614;51.012;-1.648;2023-03-16T06:03:33;99847.84;;;8.08;100.00
71109;BME280;59614;51.012;-1.648;2023-03-16T06:05:59;99831.22;;;8.08;100.00
71109;BME280;59614;51.012;-1.648;2023-03-16T06:08:26;99830.44;;;8.01;100.00
71109;BME280;59614;51.012;-1.648;2023-03-16T06:10:51;99812.88;;;8.03;100.00
71109;BME280;59614;51.012;-1.648;2023-03-16T06:13:17;99799.63;;;8.11;100.00
71109;BME280;59614;51.012;-1.648;2023-03-16T06:15:43;99806.66;;;8.10;100.00
71109;BME280;59614;51.012;-1.648;2023-03-16T06:18:09;99796.09;;;8.12;100.00
71109;BME280;59614;51.012;-1.648;2023-03-16T06:20:34;99804.03;;;8.10;100.00
71109;BME280;59614;51.012;-1.648;2023-03-16T06:23:00;99798.66;;;8.16;100.00
71109;BME280;59614;51.012;-1.648;2023-03-16T06:25:25;99803.78;;;8.23;100.00
71109;BME280;59614;51.012;-1.648;2023-03-16T06:27:50;99806.69;;;8.06;100.00
71109;BME280;59614;51.012;-1.648;2023-03-16T06:30:16;99807.59;;;8.06;100.00
71109;BME280;59614;51.012;-1.648;2023-03-16T06:32:42;99787.38;;;8.10;100.00
71109;BME280;59614;51.012;-1.648;2023-03-16T06:35:09;99798.81;;;8.07;100.00
71109;BME280;59614;51.012;-1.648;2023-03-16T06:37:35;99776.16;;;7.98;100.00
71109;BME280;59614;51.012;-1.648;2023-03-16T06:40:01;99780.47;;;8.04;100.00
71109;BME280;59614;51.012;-1.648;2023-03-16T06:42:26;99775.25;;;8.01;100.00
71109;BME280;59614;51.012;-1.648;2023-03-16T06:44:51;99779.56;;;8.05;100.00
71109;BME280;59614;51.012;-1.648;2023-03-16T06:47:18;99761.06;;;8.11;100.00
71109;BME280;59614;51.012;-1.648;2023-03-16T06:49:44;99754.09;;;8.09;100.00
71109;BME280;59614;51.012;-1.648;2023-03-16T06:52:11;99763.72;;;8.10;100.00
71109;BME280;59614;51.012;-1.648;2023-03-16T06:54:38;99753.88;;;8.21;100.00
71109;BME280;59614;51.012;-1.648;2023-03-16T06:57:05;99758.13;;;8.30;100.00
71109;BME280;59614;51.012;-1.648;2023-03-16T06:59:30;99752.97;;;8.24;100.00
71109;BME280;59614;51.012;-1.648;2023-03-16T07:01:56;99755.59;;;8.25;100.00
71109;BME280;59614;51.012;-1.648;2023-03-16T07:04:21;99772.22;;;8.26;100.00
71109;BME280;59614;51.012;-1.648;2023-03-16T07:06:47;99767.00;;;8.23;100.00
71109;BME280;59614;51.012;-1.648;2023-03-16T07:09:12;99767.97;;;8.17;100.00
71109;BME280;59614;51.012;-1.648;2023-03-16T07:11:39;99769.63;;;8.24;100.00
71109;BME280;59614;51.012;-1.648;2023-03-16T07:14:04;99777.41;;;8.29;100.00
71109;BME280;59614;51.012;-1.648;2023-03-16T07:16:30;99775.69;;;8.28;100.00
71109;BME280;59614;51.012;-1.648;2023-03-16T07:18:56;99781.91;;;8.22;100.00
71109;BME280;59614;51.012;-1.648;2023-03-16T07:21:22;99781.75;;;8.33;100.00
71109;BME280;59614;51.012;-1.648;2023-03-16T07:23:47;99777.28;;;8.35;100.00
71109;BME280;59614;51.012;-1.648;2023-03-16T07:26:13;99777.16;;;8.43;100.00
71109;BME280;59614;51.012;-1.648;2023-03-16T07:28:38;99780.84;;;8.32;100.00
71109;BME280;59614;51.012;-1.648;2023-03-16T07:31:05;99784.28;;;8.36;100.00
71109;BME280;59614;51.012;-1.648;2023-03-16T07:33:32;99788.63;;;8.40;100.00
71109;BME280;59614;51.012;-1.648;2023-03-16T07:35:57;99784.16;;;8.44;100.00
71109;BME280;59614;51.012;-1.648;2023-03-16T07:38:23;99785.88;;;8.46;100.00
71109;BME280;59614;51.012;-1.648;2023-03-16T07:40:48;99779.75;;;8.46;100.00
71109;BME280;59614;51.012;-1.648;2023-03-16T07:43:16;99780.06;;;8.29;100.00
71109;BME280;59614;51.012;-1.648;2023-03-16T07:45:49;99777.13;;;8.47;100.00
71109;BME280;59614;51.012;-1.648;2023-03-16T07:48:15;99775.94;;;8.64;100.00
71109;BME280;59614;51.012;-1.648;2023-03-16T07:50:41;99785.84;;;8.49;100.00
71109;BME280;59614;51.012;-1.648;2023-03-16T07:53:07;99787.47;;;8.57;100.00
71109;BME280;59614;51.012;-1.648;2023-03-16T07:55:32;99779.47;;;8.63;100.00
71109;BME280;59614;51.012;-1.648;2023-03-16T07:58:00;99774.72;;;8.80;100.00
71109;BME280;59614;51.012;-1.648;2023-03-16T08:00:26;99781.69;;;8.85;100.00
71109;BME280;59614;51.012;-1.648;2023-03-16T08:02:52;99783.38;;;8.89;100.00
71109;BME280;59614;51.012;-1.648;2023-03-16T08:05:18;99784.78;;;9.05;100.00
71109;BME280;59614;51.012;-1.648;2023-03-16T08:07:43;99791.91;;;9.00;100.00
71109;BME280;59614;51.012;-1.648;2023-03-16T08:10:10;99792.78;;;9.01;100.00
71109;BME280;59614;51.012;-1.648;2023-03-16T08:12:36;99784.72;;;9.08;100.00
71109;BME280;59614;51.012;-1.648;2023-03-16T08:15:01;99771.72;;;9.01;100.00
71109;BME280;59614;51.012;-1.648;2023-03-16T08:17:27;99774.78;;;8.79;100.00
71109;BME280;59614;51.012;-1.648;2023-03-16T08:19:52;99775.28;;;8.96;100.00
71109;BME280;59614;51.012;-1.648;2023-03-16T08:22:18;99774.69;;;8.84;100.00
71109;BME280;59614;51.012;-1.648;2023-03-16T08:24:43;99766.34;;;9.05;100.00
71109;BME280;59614;51.012;-1.648;2023-03-16T08:27:09;99769.53;;;9.21;100.00
71109;BME280;59614;51.012;-1.648;2023-03-16T08:29:35;99769.88;;;9.04;100.00
71109;BME280;59614;51.012;-1.648;2023-03-16T08:32:02;99765.50;;;9.03;100.00
71109;BME280;59614;51.012;-1.648;2023-03-16T08:34:27;99767.13;;;9.10;100.00
71109;BME280;59614;51.012;-1.648;2023-03-16T08:36:53;99771.72;;;9.01;100.00
71109;BME280;59614;51.012;-1.648;2023-03-16T08:39:18;99780.81;;;8.84;100.00
71109;BME280;59614;51.012;-1.648;2023-03-16T08:41:44;99775.44;;;8.90;100.00
71109;BME280;59614;51.012;-1.648;2023-03-16T08:44:11;99778.88;;;8.94;100.00
71109;BME280;59614;51.012;-1.648;2023-03-16T08:46:37;99777.28;;;8.85;100.00
71109;BME280;59614;51.012;-1.648;2023-03-16T08:49:03;99773.91;;;8.78;100.00
71109;BME280;59614;51.012;-1.648;2023-03-16T08:51:29;99776.41;;;8.85;100.00
71109;BME280;59614;51.012;-1.648;2023-03-16T08:53:55;99769.56;;;8.76;100.00
71109;BME280;59614;51.012;-1.648;2023-03-16T08:56:20;99770.13;;;8.92;100.00
71109;BME280;59614;51.012;-1.648;2023-03-16T08:58:46;99779.94;;;8.84;100.00
71109;BME280;59614;51.012;-1.648;2023-03-16T09:01:14;99772.81;;;8.90;100.00
71109;BME280;59614;51.012;-1.648;2023-03-16T09:03:42;99774.91;;;9.17;100.00
71109;BME280;59614;51.012;-1.648;2023-03-16T09:06:11;99775.47;;;9.31;100.00
71109;BME280;59614;51.012;-1.648;2023-03-16T09:08:38;99771.41;;;9.16;100.00
71109;BME280;59614;51.012;-1.648;2023-03-16T09:11:08;99770.22;;;9.30;100.00
71109;BME280;59614;51.012;-1.648;2023-03-16T09:13:36;99766.53;;;9.38;100.00
71109;BME280;59614;51.012;-1.648;2023-03-16T09:16:03;99768.19;;;9.42;100.00
71109;BME280;59614;51.012;-1.648;2023-03-16T09:18:28;99766.78;;;9.27;100.00
71109;BME280;59614;51.012;-1.648;2023-03-16T09:20:58;99766.53;;;9.38;100.00
71109;BME280;59614;51.012;-1.648;2023-03-16T09:23:24;99764.31;;;9.20;100.00
71109;BME280;59614;51.012;-1.648;2023-03-16T09:25:50;99761.66;;;9.20;100.00
71109;BME280;59614;51.012;-1.648;2023-03-16T09:28:16;99766.78;;;9.26;100.00
71109;BME280;59614;51.012;-1.648;2023-03-16T09:30:41;99757.13;;;9.26;100.00
71109;BME280;59614;51.012;-1.648;2023-03-16T09:33:07;99758.47;;;9.46;100.00
71109;BME280;59614;51.012;-1.648;2023-03-16T09:35:33;99746.66;;;9.63;100.00
71109;BME280;59614;51.012;-1.648;2023-03-16T09:37:58;99739.34;;;9.36;100.00
71109;BME280;59614;51.012;-1.648;2023-03-16T09:40:27;99731.31;;;9.42;100.00
71109;BME280;59614;51.012;-1.648;2023-03-16T09:45:47;99730.34;;;9.47;100.00
71109;BME280;59614;51.012;-1.648;2023-03-16T09:48:17;99720.84;;;9.77;100.00
71109;BME280;59614;51.012;-1.648;2023-03-16T09:50:46;99724.06;;;9.90;100.00
71109;BME280;59614;51.012;-1.648;2023-03-16T09:53:34;99723.38;;;9.82;100.00
71109;BME280;59614;51.012;-1.648;2023-03-16T09:56:04;99721.78;;;10.09;100.00
71109;BME280;59614;51.012;-1.648;2023-03-16T09:58:31;99721.59;;;10.18;100.00
71109;BME280;59614;51.012;-1.648;2023-03-16T10:01:15;99725.81;;;9.89;100.00
71109;BME280;59614;51.012;-1.648;2023-03-16T10:06:29;99717.31;;;10.47;100.00
71109;BME280;59614;51.012;-1.648;2023-03-16T10:09:10;99729.13;;;10.32;100.00
71109;BME280;59614;51.012;-1.648;2023-03-16T10:11:50;99721.81;;;10.44;100.00
71109;BME280;59614;51.012;-1.648;2023-03-16T10:14:36;99724.50;;;11.05;100.00
71109;BME280;59614;51.012;-1.648;2023-03-16T10:17:41;99729.28;;;11.21;100.00
71109;BME280;59614;51.012;-1.648;2023-03-16T10:20:18;99734.13;;;11.36;100.00
71109;BME280;59614;51.012;-1.648;2023-03-16T10:22:46;99733.19;;;11.66;99.24
71109;BME280;59614;51.012;-1.648;2023-03-16T10:27:43;99731.47;;;12.20;96.81
71109;BME280;59614;51.012;-1.648;2023-03-16T10:30:34;99729.56;;;11.97;94.41
71109;BME280;59614;51.012;-1.648;2023-03-16T10:36:16;99728.44;;;10.90;94.81
71109;BME280;59614;51.012;-1.648;2023-03-16T10:38:52;99731.16;;;10.87;96.67
71109;BME280;59614;51.012;-1.648;2023-03-16T10:41:20;99720.88;;;11.08;95.04
71109;BME280;59614;51.012;-1.648;2023-03-16T10:44:15;99716.75;;;11.57;94.85
71109;BME280;59614;51.012;-1.648;2023-03-16T10:46:47;99717.28;;;11.39;95.27
71109;BME280;59614;51.012;-1.648;2023-03-16T10:51:45;99732.16;;;11.43;94.63
71109;BME280;59614;51.012;-1.648;2023-03-16T10:54:16;99722.88;;;11.30;93.87
71109;BME280;59614;51.012;-1.648;2023-03-16T10:56:44;99704.56;;;10.93;95.47
71109;BME280;59614;51.012;-1.648;2023-03-16T10:59:39;99704.41;;;11.00;95.25
71109;BME280;59614;51.012;-1.648;2023-03-16T11:02:16;99696.84;;;11.17;96.34
71109;BME280;59614;51.012;-1.648;2023-03-16T11:04:43;99702.84;;;11.51;95.13
71109;BME280;59614;51.012;-1.648;2023-03-16T11:07:18;99703.91;;;11.17;94.15
71109;BME280;59614;51.012;-1.648;2023-03-16T11:09:44;99700.31;;;10.89;93.82
71109;BME280;59614;51.012;-1.648;2023-03-16T11:12:22;99684.00;;;10.75;94.17
71109;BME280;59614;51.012;-1.648;2023-03-16T11:14:48;99677.13;;;11.27;93.73
71109;BME280;59614;51.012;-1.648;2023-03-16T11:17:33;99689.84;;;10.86;93.81
71109;BME280;59614;51.012;-1.648;2023-03-16T11:20:04;99688.94;;;10.87;94.62
71109;BME280;59614;51.012;-1.648;2023-03-16T11:22:32;99678.63;;;11.08;93.78
71109;BME280;59614;51.012;-1.648;2023-03-16T11:25:11;99674.22;;;11.37;92.03
71109;BME280;59614;51.012;-1.648;2023-03-16T11:27:41;99667.91;;;11.41;91.97
71109;BME280;59614;51.012;-1.648;2023-03-16T11:32:44;99667.84;;;11.98;90.26
71109;BME280;59614;51.012;-1.648;2023-03-16T11:40:56;99665.66;;;11.84;90.45
71109;BME280;59614;51.012;-1.648;2023-03-16T11:49:23;99647.63;;;12.93;85.75
71109;BME280;59614;51.012;-1.648;2023-03-16T11:52:23;99631.94;;;12.65;85.20
71109;BME280;59614;51.012;-1.648;2023-03-16T11:55:18;99636.53;;;12.36;86.03
71109;BME280;59614;51.012;-1.648;2023-03-16T11:57:58;99626.88;;;12.82;85.58
71109;BME280;59614;51.012;-1.648;2023-03-16T12:14:13;99614.94;;;14.02;80.02
71109;BME280;59614;51.012;-1.648;2023-03-16T12:16:56;99630.28;;;14.35;76.84
71109;BME280;59614;51.012;-1.648;2023-03-16T12:22:41;99617.94;;;14.74;74.61
71109;BME280;59614;51.012;-1.648;2023-03-16T12:25:17;99606.72;;;13.88;75.87
71109;BME280;59614;51.012;-1.648;2023-03-16T12:27:47;99612.22;;;14.44;77.72
71109;BME280;59614;51.012;-1.648;2023-03-16T12:43:44;99593.56;;;14.64;75.42
71109;BME280;59614;51.012;-1.648;2023-03-16T12:46:16;99590.53;;;14.15;77.62
71109;BME280;59614;51.012;-1.648;2023-03-16T12:48:46;99600.34;;;13.71;79.82
71109;BME280;59614;51.012;-1.648;2023-03-16T12:51:13;99588.41;;;13.39;81.44
71109;BME280;59614;51.012;-1.648;2023-03-16T12:53:45;99585.69;;;13.63;80.59
71109;BME280;59614;51.012;-1.648;2023-03-16T12:58:57;99572.63;;;13.79;82.35
71109;BME280;59614;51.012;-1.648;2023-03-16T13:01:29;99571.91;;;13.75;82.30
71109;BME280;59614;51.012;-1.648;2023-03-16T13:04:16;99582.31;;;12.70;84.15
71109;BME280;59614;51.012;-1.648;2023-03-16T13:06:48;99570.25;;;12.85;86.35
71109;BME280;59614;51.012;-1.648;2023-03-16T13:09:21;99580.91;;;13.06;86.84
71109;BME280;59614;51.012;-1.648;2023-03-16T13:11:48;99587.25;;;13.02;85.88
71109;BME280;59614;51.012;-1.648;2023-03-16T13:14:40;99596.44;;;12.47;88.25
71109;BME280;59614;51.012;-1.648;2023-03-16T13:19:45;99571.75;;;12.23;89.16
71109;BME280;59614;51.012;-1.648;2023-03-16T13:22:48;99591.47;;;12.14;88.48
71109;BME280;59614;51.012;-1.648;2023-03-16T13:27:50;99577.91;;;12.47;88.81
71109;BME280;59614;51.012;-1.648;2023-03-16T13:30:22;99588.41;;;12.01;89.27
71109;BME280;59614;51.012;-1.648;2023-03-16T13:32:53;99587.53;;;12.26;89.42
71109;BME280;59614;51.012;-1.648;2023-03-16T13:35:20;99590.06;;;12.03;86.56
71109;BME280;59614;51.012;-1.648;2023-03-16T13:37:49;99580.25;;;12.31;88.11
71109;BME280;59614;51.012;-1.648;2023-03-16T13:40:23;99567.16;;;12.04;86.27
71109;BME280;59614;51.012;-1.648;2023-03-16T13:42:52;99559.09;;;12.55;87.21
71109;BME280;59614;51.012;-1.648;2023-03-16T13:45:39;99564.84;;;13.10;84.98
71109;BME280;59614;51.012;-1.648;2023-03-16T13:48:05;99562.44;;;13.04;84.49
71109;BME280;59614;51.012;-1.648;2023-03-16T13:50:32;99566.09;;;12.32;84.80
71109;BME280;59614;51.012;-1.648;2023-03-16T13:53:01;99575.44;;;12.42;85.10
71109;BME280;59614;51.012;-1.648;2023-03-16T13:55:30;99563.53;;;12.30;86.79
71109;BME280;59614;51.012;-1.648;2023-03-16T13:57:57;99572.66;;;12.22;88.18
71109;BME280;59614;51.012;-1.648;2023-03-16T14:00:31;99573.78;;;12.40;85.98
71109;BME280;59614;51.012;-1.648;2023-03-16T14:03:02;99590.34;;;12.91;86.16
71109;BME280;59614;51.012;-1.648;2023-03-16T14:05:33;99580.78;;;12.41;86.98
71109;BME280;59614;51.012;-1.648;2023-03-16T14:08:00;99554.63;;;11.82;87.25